createdAt,value
2019-01-20T00:00:35.591Z,1013.12
2019-01-20T00:01:16.146Z,1013.16
2019-01-20T00:01:56.698Z,1013.16
2019-01-20T00:02:37.339Z,1013.13
2019-01-20T00:03:17.909Z,1013.12
2019-01-20T00:03:58.459Z,1013.1
2019-01-20T00:04:39.011Z,1013.11
2019-01-20T00:05:19.565Z,1013.1
2019-01-20T00:06:00.137Z,1013.13
2019-01-20T00:06:40.696Z,1013.12
2019-01-20T00:07:21.264Z,1013.1
2019-01-20T00:08:01.803Z,1013.07
2019-01-20T00:08:42.354Z,1013.06
2019-01-20T00:09:22.919Z,1013.1
2019-01-20T00:10:03.479Z,1013.04
2019-01-20T00:10:44.020Z,1013.05
2019-01-20T00:11:24.569Z,1013.08
2019-01-20T00:12:05.214Z,1013.03
2019-01-20T00:12:45.780Z,1013.02
2019-01-20T00:13:26.320Z,1013.06
2019-01-20T00:14:06.885Z,1013.05
2019-01-20T00:14:47.470Z,1013.04
2019-01-20T00:15:28.059Z,1012.99
2019-01-20T00:16:08.674Z,1013.01
2019-01-20T00:16:49.254Z,1013.07
2019-01-20T00:17:29.811Z,1012.98
2019-01-20T00:18:10.399Z,1012.97
2019-01-20T00:18:51.030Z,1013.01
2019-01-20T00:19:31.572Z,1013
2019-01-20T00:20:12.190Z,1013
2019-01-20T00:20:52.676Z,1012.98
2019-01-20T00:21:33.288Z,1013
2019-01-20T00:22:13.839Z,1012.98
2019-01-20T00:22:54.443Z,1012.97
2019-01-20T00:23:34.986Z,1012.99
2019-01-20T00:24:15.585Z,1012.99
2019-01-20T00:24:56.092Z,1012.99
2019-01-20T00:25:36.653Z,1012.96
2019-01-20T00:26:17.187Z,1012.96
2019-01-20T00:26:57.762Z,1012.97
2019-01-20T00:27:38.351Z,1012.98
2019-01-20T00:28:18.908Z,1012.98
2019-01-20T00:28:59.464Z,1012.96
2019-01-20T00:29:40.072Z,1012.97
2019-01-20T00:30:20.637Z,1012.94
2019-01-20T00:31:01.198Z,1012.96
2019-01-20T00:31:41.755Z,1012.91
2019-01-20T00:32:22.312Z,1012.92
2019-01-20T00:33:02.875Z,1012.93
2019-01-20T00:33:43.451Z,1012.91
2019-01-20T00:34:24.122Z,1012.95
2019-01-20T00:35:04.600Z,1012.99
2019-01-20T00:35:45.178Z,1012.97
2019-01-20T00:36:25.730Z,1012.97
2019-01-20T00:37:06.283Z,1012.97
2019-01-20T00:37:46.850Z,1012.98
2019-01-20T00:38:27.407Z,1012.98
2019-01-20T00:39:07.945Z,1012.99
2019-01-20T00:39:48.524Z,1012.99
2019-01-20T00:40:29.094Z,1013
2019-01-20T00:41:09.649Z,1012.99
2019-01-20T00:41:50.197Z,1012.99
2019-01-20T00:42:30.757Z,1012.96
2019-01-20T00:43:11.317Z,1013
2019-01-20T00:43:51.883Z,1012.95
2019-01-20T00:44:32.459Z,1012.95
2019-01-20T00:45:13.155Z,1012.94
2019-01-20T00:45:53.711Z,1012.99
2019-01-20T00:46:34.339Z,1012.96
2019-01-20T00:47:15.104Z,1012.96
2019-01-20T00:47:55.649Z,1012.92
2019-01-20T00:48:36.265Z,1012.95
2019-01-20T00:49:16.816Z,1012.92
2019-01-20T00:49:57.373Z,1013.01
2019-01-20T00:50:37.931Z,1012.97
2019-01-20T00:51:18.501Z,1013.02
2019-01-20T00:51:59.047Z,1013.04
2019-01-20T00:52:39.638Z,1013
2019-01-20T00:53:20.244Z,1012.98
2019-01-20T00:54:00.893Z,1012.97
2019-01-20T00:54:41.480Z,1012.96
2019-01-20T00:55:22.111Z,1013
2019-01-20T00:56:02.662Z,1012.98
2019-01-20T00:56:43.213Z,1013.02
2019-01-20T00:57:23.788Z,1012.98
2019-01-20T00:58:04.369Z,1012.99
2019-01-20T00:58:44.917Z,1012.99
2019-01-20T00:59:25.485Z,1012.98
2019-01-20T01:00:06.063Z,1012.97
2019-01-20T01:00:46.650Z,1012.95
2019-01-20T01:01:27.204Z,1012.98
2019-01-20T01:02:07.773Z,1012.97
2019-01-20T01:02:48.330Z,1012.99
2019-01-20T01:03:28.910Z,1012.95
2019-01-20T01:04:09.457Z,1012.96
2019-01-20T01:04:50.022Z,1012.93
2019-01-20T01:05:30.591Z,1012.99
2019-01-20T01:06:11.398Z,1012.96
2019-01-20T01:06:51.962Z,1013.01
2019-01-20T01:07:32.527Z,1012.98
2019-01-20T01:08:13.064Z,1012.97
2019-01-20T01:08:53.608Z,1012.97
2019-01-20T01:09:34.159Z,1012.99
2019-01-20T01:10:14.717Z,1012.98
2019-01-20T01:10:55.286Z,1012.98
2019-01-20T01:11:35.844Z,1012.98
2019-01-20T01:12:16.549Z,1013.01
2019-01-20T01:12:57.095Z,1013
2019-01-20T01:13:37.649Z,1013.07
2019-01-20T01:14:18.224Z,1013.03
2019-01-20T01:14:58.781Z,1012.99
2019-01-20T01:15:39.332Z,1013.02
2019-01-20T01:16:19.896Z,1012.99
2019-01-20T01:17:00.446Z,1013.01
2019-01-20T01:17:41.084Z,1013
2019-01-20T01:18:21.638Z,1012.94
2019-01-20T01:19:02.227Z,1012.98
2019-01-20T01:19:42.803Z,1012.99
2019-01-20T01:20:23.352Z,1012.99
2019-01-20T01:21:03.902Z,1012.98
2019-01-20T01:21:44.504Z,1012.98
2019-01-20T01:22:25.105Z,1013
2019-01-20T01:23:05.645Z,1013
2019-01-20T01:23:46.207Z,1012.99
2019-01-20T01:24:26.779Z,1012.93
2019-01-20T01:25:07.348Z,1012.96
2019-01-20T01:25:47.896Z,1012.97
2019-01-20T01:26:28.463Z,1012.94
2019-01-20T01:27:09.008Z,1012.92
2019-01-20T01:27:49.559Z,1012.96
2019-01-20T01:28:30.121Z,1012.92
2019-01-20T01:29:10.674Z,1012.91
2019-01-20T01:29:51.231Z,1012.9
2019-01-20T01:30:31.768Z,1012.93
2019-01-20T01:31:12.334Z,1012.91
2019-01-20T01:31:52.894Z,1012.95
2019-01-20T01:32:33.451Z,1012.92
2019-01-20T01:33:14.020Z,1012.95
2019-01-20T01:33:54.591Z,1012.9
2019-01-20T01:34:35.194Z,1012.91
2019-01-20T01:35:15.749Z,1012.89
2019-01-20T01:35:56.304Z,1012.92
2019-01-20T01:36:36.870Z,1012.9
2019-01-20T01:37:17.453Z,1012.92
2019-01-20T01:37:58.058Z,1012.91
2019-01-20T01:38:38.610Z,1012.87
2019-01-20T01:39:19.207Z,1012.9
2019-01-20T01:39:59.757Z,1012.86
2019-01-20T01:40:40.303Z,1012.88
2019-01-20T01:41:20.887Z,1012.89
2019-01-20T01:42:01.451Z,1012.88
2019-01-20T01:42:42.187Z,1012.89
2019-01-20T01:43:22.741Z,1012.85
2019-01-20T01:44:03.315Z,1012.89
2019-01-20T01:44:43.858Z,1012.86
2019-01-20T01:45:24.424Z,1012.83
2019-01-20T01:46:05.010Z,1012.84
2019-01-20T01:46:45.585Z,1012.83
2019-01-20T01:47:26.132Z,1012.85
2019-01-20T01:48:06.686Z,1012.81
2019-01-20T01:48:47.249Z,1012.83
2019-01-20T01:49:27.816Z,1012.84
2019-01-20T01:50:08.373Z,1012.84
2019-01-20T01:50:48.921Z,1012.83
2019-01-20T01:51:29.470Z,1012.85
2019-01-20T01:52:10.029Z,1012.81
2019-01-20T01:52:50.627Z,1012.8
2019-01-20T01:53:31.200Z,1012.79
2019-01-20T01:54:11.764Z,1012.78
2019-01-20T01:54:52.330Z,1012.81
2019-01-20T01:55:32.877Z,1012.77
2019-01-20T01:56:13.466Z,1012.79
2019-01-20T01:56:54.009Z,1012.75
2019-01-20T01:57:34.592Z,1012.8
2019-01-20T01:58:15.145Z,1012.78
2019-01-20T01:58:55.706Z,1012.75
2019-01-20T01:59:36.267Z,1012.82
2019-01-20T02:00:16.827Z,1012.78
2019-01-20T02:00:57.396Z,1012.77
2019-01-20T02:01:37.953Z,1012.75
2019-01-20T02:02:18.489Z,1012.75
2019-01-20T02:02:59.054Z,1012.73
2019-01-20T02:03:39.640Z,1012.72
2019-01-20T02:04:20.198Z,1012.7
2019-01-20T02:05:00.766Z,1012.67
2019-01-20T02:05:41.673Z,1012.71
2019-01-20T02:06:22.240Z,1012.73
2019-01-20T02:07:02.791Z,1012.71
2019-01-20T02:07:43.361Z,1012.7
2019-01-20T02:08:23.915Z,1012.68
2019-01-20T02:09:04.456Z,1012.67
2019-01-20T02:09:45.015Z,1012.68
2019-01-20T02:10:25.597Z,1012.64
2019-01-20T02:11:06.169Z,1012.7
2019-01-20T02:11:47.150Z,1012.65
2019-01-20T02:12:27.309Z,1012.63
2019-01-20T02:13:07.883Z,1012.63
2019-01-20T02:13:48.461Z,1012.68
2019-01-20T02:14:29.044Z,1012.7
2019-01-20T02:15:09.579Z,1012.69
2019-01-20T02:15:50.134Z,1012.7
2019-01-20T02:16:30.687Z,1012.69
2019-01-20T02:17:11.269Z,1012.7
2019-01-20T02:17:51.831Z,1012.71
2019-01-20T02:18:32.424Z,1012.71
2019-01-20T02:19:12.955Z,1012.71
2019-01-20T02:19:53.536Z,1012.7
2019-01-20T02:20:34.080Z,1012.7
2019-01-20T02:21:14.646Z,1012.69
2019-01-20T02:21:55.287Z,1012.67
2019-01-20T02:22:35.801Z,1012.68
2019-01-20T02:23:16.340Z,1012.72
2019-01-20T02:23:56.921Z,1012.67
2019-01-20T02:24:37.481Z,1012.69
2019-01-20T02:25:18.047Z,1012.71
2019-01-20T02:25:58.631Z,1012.74
2019-01-20T02:26:39.187Z,1012.68
2019-01-20T02:27:19.735Z,1012.68
2019-01-20T02:28:00.284Z,1012.7
2019-01-20T02:28:40.892Z,1012.66
2019-01-20T02:29:21.454Z,1012.7
2019-01-20T02:30:02.022Z,1012.68
2019-01-20T02:30:42.565Z,1012.73
2019-01-20T02:31:23.129Z,1012.71
2019-01-20T02:32:03.668Z,1012.7
2019-01-20T02:32:44.219Z,1012.71
2019-01-20T02:33:24.773Z,1012.72
2019-01-20T02:34:05.322Z,1012.67
2019-01-20T02:34:45.866Z,1012.71
2019-01-20T02:35:26.472Z,1012.71
2019-01-20T02:36:07.070Z,1012.74
2019-01-20T02:36:47.621Z,1012.73
2019-01-20T02:37:28.171Z,1012.72
2019-01-20T02:38:08.775Z,1012.71
2019-01-20T02:38:49.317Z,1012.73
2019-01-20T02:39:29.880Z,1012.71
2019-01-20T02:40:10.436Z,1012.74
2019-01-20T02:40:50.995Z,1012.72
2019-01-20T02:41:31.543Z,1012.71
2019-01-20T02:42:12.125Z,1012.73
2019-01-20T02:42:52.701Z,1012.72
2019-01-20T02:43:33.260Z,1012.75
2019-01-20T02:44:13.812Z,1012.72
2019-01-20T02:44:54.383Z,1012.72
2019-01-20T02:45:34.942Z,1012.72
2019-01-20T02:46:15.503Z,1012.77
2019-01-20T02:46:56.074Z,1012.73
2019-01-20T02:47:36.622Z,1012.75
2019-01-20T02:48:17.182Z,1012.73
2019-01-20T02:48:57.770Z,1012.7
2019-01-20T02:49:38.322Z,1012.69
2019-01-20T02:50:18.880Z,1012.77
2019-01-20T02:50:59.434Z,1012.7
2019-01-20T02:51:40.004Z,1012.71
2019-01-20T02:52:20.600Z,1012.73
2019-01-20T02:53:01.147Z,1012.68
2019-01-20T02:53:41.725Z,1012.72
2019-01-20T02:54:22.261Z,1012.7
2019-01-20T02:55:02.842Z,1012.73
2019-01-20T02:55:43.395Z,1012.72
2019-01-20T02:56:23.932Z,1012.71
2019-01-20T02:57:04.505Z,1012.74
2019-01-20T02:57:45.097Z,1012.73
2019-01-20T02:58:25.656Z,1012.72
2019-01-20T02:59:06.219Z,1012.73
2019-01-20T02:59:46.770Z,1012.75
2019-01-20T03:00:27.314Z,1012.75
2019-01-20T03:01:07.858Z,1012.65
2019-01-20T03:01:48.428Z,1012.72
2019-01-20T03:02:28.969Z,1012.7
2019-01-20T03:03:09.515Z,1012.73
2019-01-20T03:03:50.080Z,1012.7
2019-01-20T03:04:30.621Z,1012.71
2019-01-20T03:05:11.183Z,1012.68
2019-01-20T03:05:51.724Z,1012.7
2019-01-20T03:06:32.279Z,1012.68
2019-01-20T03:07:12.837Z,1012.73
2019-01-20T03:07:53.405Z,1012.73
2019-01-20T03:08:33.970Z,1012.71
2019-01-20T03:09:14.529Z,1012.7
2019-01-20T03:09:55.084Z,1012.66
2019-01-20T03:10:35.653Z,1012.69
2019-01-20T03:11:16.203Z,1012.66
2019-01-20T03:12:03.366Z,1012.69
2019-01-20T03:12:37.321Z,1012.66
2019-01-20T03:13:17.869Z,1012.65
2019-01-20T03:13:58.421Z,1012.68
2019-01-20T03:14:38.966Z,1012.62
2019-01-20T03:15:19.512Z,1012.62
2019-01-20T03:16:00.064Z,1012.66
2019-01-20T03:16:40.622Z,1012.65
2019-01-20T03:17:21.176Z,1012.61
2019-01-20T03:18:01.724Z,1012.63
2019-01-20T03:18:42.268Z,1012.6
2019-01-20T03:19:22.830Z,1012.63
2019-01-20T03:20:03.397Z,1012.65
2019-01-20T03:20:43.947Z,1012.6
2019-01-20T03:21:24.503Z,1012.66
2019-01-20T03:22:05.059Z,1012.66
2019-01-20T03:22:45.620Z,1012.64
2019-01-20T03:23:26.163Z,1012.62
2019-01-20T03:24:06.705Z,1012.62
2019-01-20T03:24:47.252Z,1012.59
2019-01-20T03:25:27.817Z,1012.64
2019-01-20T03:26:08.366Z,1012.61
2019-01-20T03:26:48.925Z,1012.57
2019-01-20T03:27:29.458Z,1012.59
2019-01-20T03:28:10.014Z,1012.6
2019-01-20T03:28:50.578Z,1012.6
2019-01-20T03:29:31.140Z,1012.59
2019-01-20T03:30:11.776Z,1012.63
2019-01-20T03:30:52.340Z,1012.62
2019-01-20T03:31:32.919Z,1012.65
2019-01-20T03:32:13.507Z,1012.63
2019-01-20T03:32:54.068Z,1012.64
2019-01-20T03:33:34.671Z,1012.63
2019-01-20T03:34:15.220Z,1012.61
2019-01-20T03:34:55.791Z,1012.66
2019-01-20T03:35:36.336Z,1012.67
2019-01-20T03:36:16.943Z,1012.67
2019-01-20T03:36:57.502Z,1012.67
2019-01-20T03:37:38.060Z,1012.67
2019-01-20T03:38:18.720Z,1012.67
2019-01-20T03:38:59.239Z,1012.63
2019-01-20T03:39:39.800Z,1012.61
2019-01-20T03:40:20.379Z,1012.67
2019-01-20T03:41:00.956Z,1012.67
2019-01-20T03:41:41.506Z,1012.7
2019-01-20T03:42:22.078Z,1012.7
2019-01-20T03:43:02.604Z,1012.68
2019-01-20T03:43:43.193Z,1012.66
2019-01-20T03:44:23.740Z,1012.7
2019-01-20T03:45:04.312Z,1012.7
2019-01-20T03:45:44.867Z,1012.7
2019-01-20T03:46:25.422Z,1012.66
2019-01-20T03:47:06.004Z,1012.66
2019-01-20T03:47:46.542Z,1012.63
2019-01-20T03:48:27.158Z,1012.62
2019-01-20T03:49:07.700Z,1012.62
2019-01-20T03:49:48.347Z,1012.62
2019-01-20T03:50:28.909Z,1012.66
2019-01-20T03:51:09.453Z,1012.62
2019-01-20T03:51:50.001Z,1012.62
2019-01-20T03:52:30.553Z,1012.66
2019-01-20T03:53:11.092Z,1012.64
2019-01-20T03:53:51.650Z,1012.63
2019-01-20T03:54:32.217Z,1012.63
2019-01-20T03:55:12.767Z,1012.56
2019-01-20T03:55:53.350Z,1012.61
2019-01-20T03:56:33.900Z,1012.57
2019-01-20T03:57:14.468Z,1012.56
2019-01-20T03:57:55.018Z,1012.57
2019-01-20T03:58:35.615Z,1012.57
2019-01-20T03:59:16.161Z,1012.58
2019-01-20T03:59:56.760Z,1012.57
2019-01-20T04:00:37.305Z,1012.59
2019-01-20T04:01:17.859Z,1012.57
2019-01-20T04:01:58.435Z,1012.57
2019-01-20T04:02:38.981Z,1012.57
2019-01-20T04:03:19.640Z,1012.58
2019-01-20T04:04:00.187Z,1012.59
2019-01-20T04:04:40.742Z,1012.6
2019-01-20T04:05:21.316Z,1012.6
2019-01-20T04:06:02.148Z,1012.62
2019-01-20T04:06:42.707Z,1012.65
2019-01-20T04:07:23.276Z,1012.64
2019-01-20T04:08:03.822Z,1012.59
2019-01-20T04:08:44.382Z,1012.6
2019-01-20T04:09:24.939Z,1012.59
2019-01-20T04:10:05.508Z,1012.61
2019-01-20T04:10:46.053Z,1012.61
2019-01-20T04:11:26.604Z,1012.64
2019-01-20T04:12:07.194Z,1012.66
2019-01-20T04:12:47.748Z,1012.64
2019-01-20T04:13:28.338Z,1012.67
2019-01-20T04:14:08.886Z,1012.67
2019-01-20T04:14:49.425Z,1012.69
2019-01-20T04:15:29.996Z,1012.69
2019-01-20T04:16:10.538Z,1012.69
2019-01-20T04:16:51.099Z,1012.7
2019-01-20T04:17:31.697Z,1012.69
2019-01-20T04:18:12.277Z,1012.7
2019-01-20T04:18:52.822Z,1012.73
2019-01-20T04:19:33.374Z,1012.68
2019-01-20T04:20:13.938Z,1012.69
2019-01-20T04:20:54.494Z,1012.69
2019-01-20T04:21:35.045Z,1012.65
2019-01-20T04:22:15.603Z,1012.69
2019-01-20T04:22:56.173Z,1012.7
2019-01-20T04:23:36.720Z,1012.64
2019-01-20T04:24:17.282Z,1012.64
2019-01-20T04:24:57.857Z,1012.63
2019-01-20T04:25:38.407Z,1012.63
2019-01-20T04:26:18.963Z,1012.63
2019-01-20T04:26:59.558Z,1012.62
2019-01-20T04:27:40.125Z,1012.63
2019-01-20T04:28:20.676Z,1012.61
2019-01-20T04:29:01.234Z,1012.62
2019-01-20T04:29:41.780Z,1012.62
2019-01-20T04:30:22.340Z,1012.64
2019-01-20T04:31:02.918Z,1012.61
2019-01-20T04:31:43.478Z,1012.62
2019-01-20T04:32:24.034Z,1012.61
2019-01-20T04:33:04.595Z,1012.63
2019-01-20T04:33:45.157Z,1012.62
2019-01-20T04:34:25.697Z,1012.61
2019-01-20T04:35:06.259Z,1012.63
2019-01-20T04:35:46.809Z,1012.61
2019-01-20T04:36:27.367Z,1012.63
2019-01-20T04:37:07.925Z,1012.6
2019-01-20T04:37:48.494Z,1012.65
2019-01-20T04:38:29.056Z,1012.63
2019-01-20T04:39:09.810Z,1012.61
2019-01-20T04:39:50.366Z,1012.61
2019-01-20T04:40:30.955Z,1012.63
2019-01-20T04:41:11.509Z,1012.63
2019-01-20T04:41:52.068Z,1012.65
2019-01-20T04:42:32.661Z,1012.65
2019-01-20T04:43:13.229Z,1012.62
2019-01-20T04:43:53.768Z,1012.62
2019-01-20T04:44:34.339Z,1012.64
2019-01-20T04:45:14.905Z,1012.66
2019-01-20T04:45:55.539Z,1012.64
2019-01-20T04:46:36.152Z,1012.66
2019-01-20T04:47:16.695Z,1012.65
2019-01-20T04:47:57.273Z,1012.65
2019-01-20T04:48:37.824Z,1012.62
2019-01-20T04:49:18.379Z,1012.61
2019-01-20T04:49:58.935Z,1012.68
2019-01-20T04:50:39.506Z,1012.69
2019-01-20T04:51:20.065Z,1012.66
2019-01-20T04:52:00.592Z,1012.67
2019-01-20T04:52:41.127Z,1012.65
2019-01-20T04:53:21.682Z,1012.64
2019-01-20T04:54:02.252Z,1012.62
2019-01-20T04:54:42.799Z,1012.67
2019-01-20T04:55:23.357Z,1012.65
2019-01-20T04:56:03.948Z,1012.68
2019-01-20T04:56:44.527Z,1012.69
2019-01-20T04:57:25.080Z,1012.64
2019-01-20T04:58:05.636Z,1012.67
2019-01-20T04:58:46.202Z,1012.67
2019-01-20T04:59:26.756Z,1012.67
2019-01-20T05:00:07.309Z,1012.66
2019-01-20T05:00:47.876Z,1012.64
2019-01-20T05:01:28.435Z,1012.66
2019-01-20T05:02:08.982Z,1012.63
2019-01-20T05:02:49.684Z,1012.67
2019-01-20T05:03:30.228Z,1012.69
2019-01-20T05:04:10.794Z,1012.72
2019-01-20T05:04:51.350Z,1012.7
2019-01-20T05:05:31.916Z,1012.68
2019-01-20T05:06:12.472Z,1012.68
2019-01-20T05:06:53.221Z,1012.67
2019-01-20T05:07:33.773Z,1012.69
2019-01-20T05:08:14.351Z,1012.68
2019-01-20T05:08:54.905Z,1012.68
2019-01-20T05:09:35.460Z,1012.67
2019-01-20T05:10:16.038Z,1012.67
2019-01-20T05:10:56.594Z,1012.62
2019-01-20T05:11:37.144Z,1012.67
2019-01-20T05:12:17.689Z,1012.65
2019-01-20T05:12:58.246Z,1012.66
2019-01-20T05:13:38.799Z,1012.67
2019-01-20T05:14:19.404Z,1012.68
2019-01-20T05:14:59.961Z,1012.68
2019-01-20T05:15:40.576Z,1012.66
2019-01-20T05:16:21.125Z,1012.68
2019-01-20T05:17:01.679Z,1012.66
2019-01-20T05:17:42.234Z,1012.66
2019-01-20T05:18:22.790Z,1012.68
2019-01-20T05:19:03.374Z,1012.69
2019-01-20T05:19:43.938Z,1012.67
2019-01-20T05:20:24.521Z,1012.69
2019-01-20T05:21:05.093Z,1012.67
2019-01-20T05:21:45.683Z,1012.7
2019-01-20T05:22:26.225Z,1012.67
2019-01-20T05:23:06.775Z,1012.7
2019-01-20T05:23:47.345Z,1012.64
2019-01-20T05:24:27.933Z,1012.65
2019-01-20T05:25:08.501Z,1012.67
2019-01-20T05:25:49.066Z,1012.64
2019-01-20T05:26:29.630Z,1012.68
2019-01-20T05:27:10.194Z,1012.68
2019-01-20T05:27:50.760Z,1012.66
2019-01-20T05:28:31.321Z,1012.66
2019-01-20T05:29:11.874Z,1012.67
2019-01-20T05:29:52.421Z,1012.66
2019-01-20T05:30:32.980Z,1012.68
2019-01-20T05:31:13.543Z,1012.71
2019-01-20T05:31:54.141Z,1012.68
2019-01-20T05:32:34.697Z,1012.64
2019-01-20T05:33:15.264Z,1012.65
2019-01-20T05:33:55.850Z,1012.69
2019-01-20T05:34:36.397Z,1012.67
2019-01-20T05:35:16.947Z,1012.66
2019-01-20T05:35:57.512Z,1012.62
2019-01-20T05:36:38.099Z,1012.65
2019-01-20T05:37:18.654Z,1012.61
2019-01-20T05:37:59.208Z,1012.69
2019-01-20T05:38:39.792Z,1012.67
2019-01-20T05:39:20.333Z,1012.66
2019-01-20T05:40:00.896Z,1012.68
2019-01-20T05:40:41.468Z,1012.67
2019-01-20T05:41:22.055Z,1012.66
2019-01-20T05:42:02.641Z,1012.7
2019-01-20T05:42:46.191Z,1012.66
2019-01-20T05:43:23.775Z,1012.68
2019-01-20T05:44:04.348Z,1012.68
2019-01-20T05:44:44.878Z,1012.71
2019-01-20T05:45:25.445Z,1012.72
2019-01-20T05:46:06.033Z,1012.74
2019-01-20T05:46:46.627Z,1012.7
2019-01-20T05:47:27.208Z,1012.71
2019-01-20T05:48:07.772Z,1012.72
2019-01-20T05:48:48.303Z,1012.74
2019-01-20T05:49:28.884Z,1012.75
2019-01-20T05:50:09.419Z,1012.77
2019-01-20T05:50:50.014Z,1012.77
2019-01-20T05:51:30.573Z,1012.76
2019-01-20T05:52:11.137Z,1012.75
2019-01-20T05:52:51.694Z,1012.75
2019-01-20T05:53:32.236Z,1012.77
2019-01-20T05:54:12.816Z,1012.74
2019-01-20T05:54:53.377Z,1012.7
2019-01-20T05:55:33.972Z,1012.72
2019-01-20T05:56:14.533Z,1012.7
2019-01-20T05:56:55.086Z,1012.73
2019-01-20T05:57:35.641Z,1012.7
2019-01-20T05:58:16.225Z,1012.75
2019-01-20T05:58:56.775Z,1012.73
2019-01-20T05:59:37.333Z,1012.7
2019-01-20T06:00:17.880Z,1012.73
2019-01-20T06:00:58.461Z,1012.71
2019-01-20T06:01:39.095Z,1012.67
2019-01-20T06:02:19.659Z,1012.67
2019-01-20T06:03:00.226Z,1012.65
2019-01-20T06:03:40.779Z,1012.63
2019-01-20T06:04:21.342Z,1012.68
2019-01-20T06:05:01.900Z,1012.68
2019-01-20T06:05:42.451Z,1012.69
2019-01-20T06:06:23.022Z,1012.67
2019-01-20T06:07:03.572Z,1012.69
2019-01-20T06:07:44.126Z,1012.67
2019-01-20T06:08:24.694Z,1012.68
2019-01-20T06:09:05.270Z,1012.71
2019-01-20T06:09:45.823Z,1012.69
2019-01-20T06:10:26.483Z,1012.66
2019-01-20T06:11:07.039Z,1012.68
2019-01-20T06:11:47.605Z,1012.69
2019-01-20T06:12:28.167Z,1012.69
2019-01-20T06:13:08.739Z,1012.66
2019-01-20T06:13:49.291Z,1012.68
2019-01-20T06:14:29.848Z,1012.73
2019-01-20T06:15:10.394Z,1012.71
2019-01-20T06:15:50.989Z,1012.69
2019-01-20T06:16:31.553Z,1012.72
2019-01-20T06:17:12.117Z,1012.69
2019-01-20T06:17:52.740Z,1012.71
2019-01-20T06:18:33.301Z,1012.71
2019-01-20T06:19:13.852Z,1012.74
2019-01-20T06:19:54.448Z,1012.7
2019-01-20T06:20:35.010Z,1012.76
2019-01-20T06:21:15.556Z,1012.72
2019-01-20T06:21:56.301Z,1012.77
2019-01-20T06:22:36.856Z,1012.76
2019-01-20T06:23:17.445Z,1012.75
2019-01-20T06:23:58.009Z,1012.78
2019-01-20T06:24:38.565Z,1012.77
2019-01-20T06:25:19.131Z,1012.79
2019-01-20T06:25:59.692Z,1012.79
2019-01-20T06:26:40.259Z,1012.79
2019-01-20T06:27:20.808Z,1012.78
2019-01-20T06:28:01.378Z,1012.81
2019-01-20T06:28:41.929Z,1012.76
2019-01-20T06:29:22.523Z,1012.79
2019-01-20T06:30:03.088Z,1012.8
2019-01-20T06:30:43.684Z,1012.83
2019-01-20T06:31:24.240Z,1012.83
2019-01-20T06:32:04.837Z,1012.86
2019-01-20T06:32:45.402Z,1012.88
2019-01-20T06:33:25.987Z,1012.85
2019-01-20T06:34:06.545Z,1012.87
2019-01-20T06:34:48.817Z,1012.87
2019-01-20T06:35:27.669Z,1012.82
2019-01-20T06:36:08.233Z,1012.85
2019-01-20T06:36:48.804Z,1012.85
2019-01-20T06:37:29.355Z,1012.84
2019-01-20T06:38:09.930Z,1012.87
2019-01-20T06:38:50.493Z,1012.85
2019-01-20T06:39:31.085Z,1012.85
2019-01-20T06:40:11.643Z,1012.91
2019-01-20T06:40:52.211Z,1012.93
2019-01-20T06:41:32.791Z,1012.95
2019-01-20T06:42:13.333Z,1012.94
2019-01-20T06:43:01.187Z,1012.98
2019-01-20T06:43:34.440Z,1012.95
2019-01-20T06:44:15.007Z,1012.98
2019-01-20T06:44:55.583Z,1013.01
2019-01-20T06:45:36.146Z,1012.99
2019-01-20T06:46:16.699Z,1013.02
2019-01-20T06:46:57.270Z,1013.03
2019-01-20T06:47:37.816Z,1012.99
2019-01-20T06:48:18.383Z,1013.03
2019-01-20T06:48:58.924Z,1013.05
2019-01-20T06:49:39.472Z,1012.98
2019-01-20T06:50:20.046Z,1013.01
2019-01-20T06:51:00.609Z,1012.98
2019-01-20T06:51:41.141Z,1012.98
2019-01-20T06:52:21.710Z,1013.01
2019-01-20T06:53:02.253Z,1013.01
2019-01-20T06:53:42.815Z,1012.99
2019-01-20T06:54:23.362Z,1013.01
2019-01-20T06:55:03.910Z,1013.05
2019-01-20T06:55:44.466Z,1013.01
2019-01-20T06:56:25.020Z,1013.02
2019-01-20T06:57:05.568Z,1013.04
2019-01-20T06:57:46.115Z,1013.03
2019-01-20T06:58:26.687Z,1013.05
2019-01-20T06:59:07.272Z,1013.02
2019-01-20T06:59:47.831Z,1013.02
2019-01-20T07:00:28.395Z,1013.04
2019-01-20T07:01:08.978Z,1013.09
2019-01-20T07:01:49.506Z,1013.06
2019-01-20T07:02:30.095Z,1013.07
2019-01-20T07:03:10.689Z,1013.06
2019-01-20T07:03:51.250Z,1013.09
2019-01-20T07:04:31.808Z,1013.02
2019-01-20T07:05:12.369Z,1013.06
2019-01-20T07:05:53.190Z,1013.07
2019-01-20T07:06:33.758Z,1013.06
2019-01-20T07:07:14.331Z,1013.05
2019-01-20T07:07:54.889Z,1013.07
2019-01-20T07:08:35.468Z,1013.1
2019-01-20T07:09:16.017Z,1013.11
2019-01-20T07:09:56.578Z,1013.1
2019-01-20T07:10:37.121Z,1013.13
2019-01-20T07:11:17.682Z,1013.13
2019-01-20T07:11:58.231Z,1013.11
2019-01-20T07:12:38.812Z,1013.12
2019-01-20T07:13:19.385Z,1013.12
2019-01-20T07:13:59.940Z,1013.13
2019-01-20T07:14:40.494Z,1013.13
2019-01-20T07:15:21.037Z,1013.14
2019-01-20T07:16:01.589Z,1013.12
2019-01-20T07:16:42.130Z,1013.14
2019-01-20T07:17:22.699Z,1013.17
2019-01-20T07:18:03.244Z,1013.16
2019-01-20T07:18:43.836Z,1013.13
2019-01-20T07:19:24.390Z,1013.18
2019-01-20T07:20:04.942Z,1013.19
2019-01-20T07:20:45.518Z,1013.21
2019-01-20T07:21:26.074Z,1013.23
2019-01-20T07:22:06.643Z,1013.21
2019-01-20T07:22:47.188Z,1013.18
2019-01-20T07:23:27.760Z,1013.17
2019-01-20T07:24:08.313Z,1013.23
2019-01-20T07:24:48.858Z,1013.2
2019-01-20T07:25:29.406Z,1013.2
2019-01-20T07:26:09.958Z,1013.2
2019-01-20T07:26:50.586Z,1013.18
2019-01-20T07:27:31.114Z,1013.23
2019-01-20T07:28:11.655Z,1013.19
2019-01-20T07:28:52.244Z,1013.2
2019-01-20T07:29:32.807Z,1013.17
2019-01-20T07:30:13.368Z,1013.18
2019-01-20T07:30:53.918Z,1013.19
2019-01-20T07:31:34.487Z,1013.19
2019-01-20T07:32:15.037Z,1013.17
2019-01-20T07:32:55.599Z,1013.19
2019-01-20T07:33:36.159Z,1013.19
2019-01-20T07:34:16.759Z,1013.17
2019-01-20T07:34:57.367Z,1013.18
2019-01-20T07:35:37.931Z,1013.26
2019-01-20T07:36:19.914Z,1013.21
2019-01-20T07:36:59.556Z,1013.26
2019-01-20T07:37:40.166Z,1013.24
2019-01-20T07:38:21.073Z,1013.21
2019-01-20T07:39:01.518Z,1013.23
2019-01-20T07:39:42.076Z,1013.31
2019-01-20T07:40:22.653Z,1013.29
2019-01-20T07:41:03.198Z,1013.25
2019-01-20T07:41:43.738Z,1013.31
2019-01-20T07:42:24.343Z,1013.24
2019-01-20T07:43:04.910Z,1013.28
2019-01-20T07:43:45.505Z,1013.34
2019-01-20T07:44:26.289Z,1013.3
2019-01-20T07:45:07.452Z,1013.32
2019-01-20T07:45:47.991Z,1013.34
2019-01-20T07:46:28.534Z,1013.35
2019-01-20T07:47:09.097Z,1013.33
2019-01-20T07:47:49.733Z,1013.37
2019-01-20T07:48:30.348Z,1013.35
2019-01-20T07:49:11.036Z,1013.37
2019-01-20T07:49:51.584Z,1013.36
2019-01-20T07:50:32.162Z,1013.35
2019-01-20T07:51:12.713Z,1013.36
2019-01-20T07:51:53.285Z,1013.38
2019-01-20T07:52:33.844Z,1013.39
2019-01-20T07:53:14.439Z,1013.38
2019-01-20T07:53:55.006Z,1013.38
2019-01-20T07:54:35.748Z,1013.4
2019-01-20T07:55:16.523Z,1013.42
2019-01-20T07:55:57.293Z,1013.42
2019-01-20T07:56:37.893Z,1013.44
2019-01-20T07:57:18.455Z,1013.41
2019-01-20T07:57:59.959Z,1013.43
2019-01-20T07:58:40.483Z,1013.46
2019-01-20T07:59:21.046Z,1013.43
2019-01-20T08:00:02.631Z,1013.46
2019-01-20T08:00:43.267Z,1013.46
2019-01-20T08:01:24.017Z,1013.48
2019-01-20T08:02:04.567Z,1013.45
2019-01-20T08:02:45.221Z,1013.48
2019-01-20T08:03:26.857Z,1013.49
2019-01-20T08:04:07.399Z,1013.49
2019-01-20T08:04:47.951Z,1013.49
2019-01-20T08:05:28.521Z,1013.47
2019-01-20T08:06:09.111Z,1013.51
2019-01-20T08:06:49.685Z,1013.52
2019-01-20T08:07:30.239Z,1013.54
2019-01-20T08:08:10.889Z,1013.55
2019-01-20T08:08:51.461Z,1013.54
2019-01-20T08:09:32.251Z,1013.55
2019-01-20T08:10:12.832Z,1013.53
2019-01-20T08:10:53.396Z,1013.54
2019-01-20T08:11:35.017Z,1013.56
2019-01-20T08:12:15.749Z,1013.62
2019-01-20T08:12:56.378Z,1013.65